Time;durP1;ratioP1;P1;durP2;ratioP2;P2;SDS_P1;SDS_P2;PMS_P1;PMS_P2;Temp;Humidity;BMP_temperature;BMP_pressure;BME280_temperature;BME280_humidity;BME280_pressure;Samples;Min_cycle;Max_cycle;Signal;HPM_P1;HPM_P2
2024/02/21 00:03:45;;;;;;;11.27;5.03;;;9.80;99.90;;;;;;8462537;28;20055;-71
2024/02/21 00:07:47;;;;;;;10.85;4.15;;;9.80;99.90;;;;;;8464487;27;20545;-71
2024/02/21 00:11:49;;;;;;;11.27;4.68;;;9.80;99.90;;;;;;8461583;28;20035;-71
2024/02/21 00:15:51;;;;;;;9.57;4.57;;;9.80;99.90;;;;;;8450101;28;20044;-71
2024/02/21 00:19:53;;;;;;;13.20;5.20;;;9.80;99.90;;;;;;8461847;27;20047;-71
2024/02/21 00:23:55;;;;;;;8.90;4.55;;;9.70;99.90;;;;;;8457123;28;20051;-71
2024/02/21 00:27:57;;;;;;;8.90;4.20;;;9.70;99.90;;;;;;8461609;28;20044;-71
2024/02/21 00:37:20;;;;;;;11.77;4.72;;;9.70;99.90;;;;;;8456102;28;20201;-71
2024/02/21 00:41:22;;;;;;;14.05;4.40;;;9.70;99.90;;;;;;8460067;28;20447;-71
2024/02/21 00:45:24;;;;;;;11.30;4.28;;;9.70;99.90;;;;;;8457470;28;20050;-71
2024/02/21 00:54:49;;;;;;;10.07;4.78;;;9.60;99.90;;;;;;8455177;28;20031;-71
2024/02/21 00:58:56;;;;;;;7.57;4.85;;;9.60;99.90;;;;;;8459866;28;20047;-71
2024/02/21 01:02:58;;;;;;;8.65;3.70;;;9.60;99.90;;;;;;8458817;28;20052;-71
2024/02/21 01:07:00;;;;;;;12.50;4.40;;;9.60;99.90;;;;;;8458338;28;20044;-71
2024/02/21 01:11:01;;;;;;;6.65;3.38;;;9.60;99.90;;;;;;8458595;28;20040;-71
2024/02/21 01:15:04;;;;;;;6.70;3.38;;;9.60;99.90;;;;;;8448513;28;20053;-71
2024/02/21 01:24:29;;;;;;;9.77;3.55;;;9.60;99.90;;;;;;8456510;28;20031;-71
2024/02/21 01:28:30;;;;;;;9.70;3.22;;;9.60;99.90;;;;;;8459084;28;20048;-71
2024/02/21 01:32:32;;;;;;;8.30;3.58;;;9.60;99.90;;;;;;8458682;28;20048;-71
2024/02/21 01:36:34;;;;;;;12.75;3.30;;;9.60;99.90;;;;;;8453709;28;20043;-71
2024/02/21 01:40:37;;;;;;;8.02;3.70;;;9.60;99.90;;;;;;8459310;28;20120;-71
2024/02/21 01:44:39;;;;;;;9.38;3.70;;;9.60;99.90;;;;;;8456431;28;20126;-71
2024/02/21 01:48:41;;;;;;;9.70;3.72;;;9.50;99.90;;;;;;8456824;28;20044;-71
2024/02/21 01:52:46;;;;;;;9.60;3.70;;;9.50;99.90;;;;;;8459448;28;20075;-71
2024/02/21 01:56:49;;;;;;;14.27;4.53;;;9.50;99.90;;;;;;8454783;28;20100;-71
2024/02/21 02:11:35;;;;;;;7.72;3.78;;;9.60;99.90;;;;;;8457584;28;20112;-71
2024/02/21 02:15:48;;;;;;;11.40;4.75;;;9.60;99.90;;;;;;8448554;28;20135;-71
2024/02/21 02:19:50;;;;;;;8.95;3.95;;;9.60;99.90;;;;;;8453162;28;20044;-71
2024/02/21 02:23:52;;;;;;;7.25;3.22;;;9.60;99.90;;;;;;8455283;28;20139;-71
2024/02/21 02:27:54;;;;;;;8.23;3.30;;;9.60;99.90;;;;;;8451704;27;20098;-71
2024/02/21 02:31:56;;;;;;;7.63;4.10;;;9.60;99.90;;;;;;8454730;28;20566;-71
2024/02/21 02:35:58;;;;;;;8.73;4.22;;;9.50;99.90;;;;;;8455813;28;20127;-71
2024/02/21 02:40:00;;;;;;;9.70;4.13;;;9.50;99.90;;;;;;8454709;28;20055;-71
2024/02/21 02:44:53;;;;;;;9.93;3.72;;;9.50;99.90;;;;;;8455000;28;20083;-71
2024/02/21 02:48:55;;;;;;;8.00;4.20;;;9.50;99.90;;;;;;8454210;28;20048;-71
2024/02/21 02:52:57;;;;;;;9.73;4.68;;;9.50;99.90;;;;;;8454106;28;20387;-71
2024/02/21 02:56:59;;;;;;;9.80;3.63;;;9.50;99.90;;;;;;8455190;28;20083;-71
2024/02/21 03:01:02;;;;;;;13.25;4.25;;;9.50;99.90;;;;;;8451891;28;20043;-71
2024/02/21 03:05:13;;;;;;;11.93;4.20;;;9.50;99.90;;;;;;8453329;28;20567;-71
2024/02/21 03:09:15;;;;;;;9.63;4.07;;;9.50;99.90;;;;;;8450745;28;20078;-71
2024/02/21 03:13:17;;;;;;;10.13;3.65;;;9.50;99.90;;;;;;8455426;28;20048;-71
2024/02/21 03:17:19;;;;;;;9.07;3.72;;;9.50;99.90;;;;;;8452735;28;20496;-71
2024/02/21 03:21:20;;;;;;;10.82;4.22;;;9.40;99.90;;;;;;8454710;28;20551;-71
2024/02/21 03:30:45;;;;;;;10.77;4.28;;;9.40;99.90;;;;;;8453393;28;20046;-71
2024/02/21 03:34:46;;;;;;;8.75;3.88;;;9.40;99.90;;;;;;8456927;28;20050;-71
2024/02/21 03:38:48;;;;;;;11.15;4.65;;;9.40;99.90;;;;;;8454691;28;20085;-71
2024/02/21 03:42:50;;;;;;;8.80;4.15;;;9.40;99.90;;;;;;8457024;28;20144;-71
2024/02/21 03:46:52;;;;;;;10.90;4.18;;;9.30;99.90;;;;;;8460757;28;20046;-70
2024/02/21 03:50:54;;;;;;;9.45;4.65;;;9.30;99.90;;;;;;8458938;28;20039;-71
2024/02/21 03:54:56;;;;;;;8.73;4.22;;;9.30;99.90;;;;;;8462421;28;20047;-71
2024/02/21 03:58:58;;;;;;;8.32;4.53;;;9.30;99.90;;;;;;8462722;27;20089;-71
2024/02/21 04:03:00;;;;;;;9.45;3.70;;;9.30;99.90;;;;;;8461970;27;20490;-71
2024/02/21 04:07:06;;;;;;;10.55;4.00;;;9.30;99.90;;;;;;8461253;28;20403;-71
2024/02/21 04:11:07;;;;;;;12.10;5.55;;;9.30;99.90;;;;;;8460368;28;20402;-71
2024/02/21 04:15:09;;;;;;;11.27;4.82;;;9.30;99.90;;;;;;8452732;28;20505;-71
2024/02/21 04:19:11;;;;;;;11.20;4.25;;;9.30;99.90;;;;;;8435891;27;20052;-71
2024/02/21 04:23:13;;;;;;;16.17;5.00;;;9.30;99.90;;;;;;8443265;27;20043;-71
2024/02/21 04:27:15;;;;;;;9.30;4.40;;;9.30;99.90;;;;;;8455020;27;20043;-71
2024/02/21 04:31:17;;;;;;;8.95;4.53;;;9.30;99.90;;;;;;8450402;27;20040;-71
2024/02/21 04:35:19;;;;;;;11.15;4.85;;;9.30;99.90;;;;;;8437857;27;20036;-71
2024/02/21 04:39:46;;;;;;;9.05;4.47;;;9.30;99.90;;;;;;8440038;27;20409;-71
2024/02/21 04:43:48;;;;;;;8.80;4.13;;;9.30;99.90;;;;;;8441505;28;20047;-71
2024/02/21 04:48:41;;;;;;;10.90;5.38;;;9.30;99.90;;;;;;8439627;28;20281;-71
2024/02/21 04:52:43;;;;;;;9.63;5.32;;;9.30;99.90;;;;;;8439049;28;20093;-71
2024/02/21 04:56:45;;;;;;;10.80;5.25;;;9.30;99.90;;;;;;8450235;28;20048;-71
2024/02/21 05:00:47;;;;;;;10.13;5.18;;;9.30;99.90;;;;;;8440958;28;20048;-71
2024/02/21 05:04:49;;;;;;;12.20;5.22;;;9.30;99.90;;;;;;8440042;28;20523;-71
2024/02/21 05:08:51;;;;;;;9.43;5.63;;;9.20;99.90;;;;;;8433074;28;20048;-71
2024/02/21 05:12:52;;;;;;;12.10;5.05;;;9.30;99.90;;;;;;8439249;28;20106;-71
2024/02/21 05:16:54;;;;;;;10.18;5.95;;;9.30;99.90;;;;;;8446787;27;20441;-71
2024/02/21 05:20:56;;;;;;;10.90;5.30;;;9.30;99.90;;;;;;8449706;28;20169;-71
2024/02/21 05:24:58;;;;;;;11.57;5.75;;;9.30;99.90;;;;;;8419772;27;20062;-71
2024/02/21 05:29:00;;;;;;;11.52;5.25;;;9.30;99.90;;;;;;8446620;28;20098;-71
2024/02/21 05:33:06;;;;;;;10.02;5.50;;;9.30;99.90;;;;;;8471891;27;20109;-71
2024/02/21 05:37:08;;;;;;;11.23;5.47;;;9.20;99.90;;;;;;8444270;28;20490;-71
2024/02/21 05:41:10;;;;;;;14.23;6.22;;;9.20;99.90;;;;;;8454135;28;20087;-71
2024/02/21 05:45:15;;;;;;;11.82;5.68;;;9.20;99.90;;;;;;8456994;28;20135;-71
2024/02/21 05:49:17;;;;;;;12.98;6.10;;;9.20;99.90;;;;;;8457356;28;20050;-71
2024/02/21 05:53:19;;;;;;;10.60;6.43;;;9.20;99.90;;;;;;8456155;28;20127;-71
2024/02/21 05:57:21;;;;;;;12.07;6.78;;;9.20;99.90;;;;;;8453823;28;20483;-71
2024/02/21 06:01:22;;;;;;;13.18;7.00;;;9.20;99.90;;;;;;8454228;28;21012;-71
2024/02/21 06:05:25;;;;;;;12.38;5.95;;;9.20;99.90;;;;;;8480852;27;20071;-71
2024/02/21 06:09:27;;;;;;;15.65;7.47;;;9.20;99.90;;;;;;8441661;28;21010;-71
2024/02/21 06:13:54;;;;;;;13.50;7.18;;;9.20;99.90;;;;;;8428508;28;20052;-71
2024/02/21 06:17:56;;;;;;;15.23;6.90;;;9.20;99.90;;;;;;8425028;28;20100;-71
2024/02/21 06:21:58;;;;;;;15.20;7.85;;;9.10;99.90;;;;;;8420828;28;20047;-71
2024/02/21 06:25:59;;;;;;;15.32;8.10;;;9.00;99.90;;;;;;8426102;27;20036;-71
2024/02/21 06:30:02;;;;;;;18.50;9.02;;;9.00;99.90;;;;;;8424872;27;20040;-72
2024/02/21 06:34:04;;;;;;;20.58;9.52;;;8.90;99.90;;;;;;8427095;27;20546;-71
2024/02/21 06:38:06;;;;;;;18.30;9.38;;;8.90;99.90;;;;;;8429683;27;20494;-71
2024/02/21 06:42:09;;;;;;;18.75;9.40;;;8.90;99.90;;;;;;8422974;28;20079;-71
2024/02/21 06:46:11;;;;;;;18.27;9.48;;;8.90;99.90;;;;;;8423544;28;20097;-71
2024/02/21 06:50:12;;;;;;;18.80;10.13;;;8.90;99.90;;;;;;8427492;27;20135;-71
2024/02/21 06:54:14;;;;;;;19.80;8.90;;;8.90;99.90;;;;;;8420987;28;20044;-71
2024/02/21 06:58:16;;;;;;;18.40;9.82;;;8.90;99.90;;;;;;8416674;28;20074;-71
2024/02/21 07:02:18;;;;;;;16.77;9.32;;;8.90;99.90;;;;;;8414513;28;20052;-71
2024/02/21 07:06:20;;;;;;;24.00;9.60;;;8.90;99.90;;;;;;8417993;28;20044;-71
2024/02/21 07:10:22;;;;;;;21.05;9.52;;;8.90;99.90;;;;;;8419845;28;20040;-71
2024/02/21 07:14:25;;;;;;;19.13;8.52;;;8.90;99.90;;;;;;8420705;28;20107;-71
2024/02/21 07:18:27;;;;;;;15.85;7.90;;;8.90;99.90;;;;;;8426877;27;20073;-71
2024/02/21 07:22:29;;;;;;;14.23;7.75;;;8.90;99.90;;;;;;8426351;27;20056;-71
2024/02/21 07:26:31;;;;;;;18.40;7.65;;;8.90;99.90;;;;;;8421551;27;20064;-70
2024/02/21 07:30:33;;;;;;;19.45;7.63;;;8.90;99.90;;;;;;8431281;27;20042;-71
2024/02/21 07:34:35;;;;;;;17.65;7.68;;;8.90;99.90;;;;;;8435464;28;20495;-71
2024/02/21 07:38:37;;;;;;;16.60;7.18;;;8.80;99.90;;;;;;8425021;28;20036;-71
2024/02/21 07:42:39;;;;;;;15.70;7.05;;;8.80;99.90;;;;;;8438598;28;20078;-71
2024/02/21 07:46:41;;;;;;;16.17;7.43;;;8.80;99.90;;;;;;8432363;28;20043;-71
2024/02/21 07:50:43;;;;;;;14.38;7.47;;;8.80;99.90;;;;;;8429601;28;20133;-71
2024/02/21 07:54:45;;;;;;;14.25;7.85;;;8.80;99.90;;;;;;8425473;28;20044;-71
2024/02/21 07:58:46;;;;;;;14.98;7.38;;;8.80;99.90;;;;;;8425582;28;20040;-72
2024/02/21 08:02:49;;;;;;;16.40;7.78;;;8.90;99.90;;;;;;8429446;28;20473;-71
2024/02/21 08:06:55;;;;;;;22.30;8.85;;;8.90;99.90;;;;;;8432516;28;20048;-71
2024/02/21 08:10:57;;;;;;;15.98;7.68;;;8.90;99.90;;;;;;8434576;28;20075;-71
2024/02/21 08:14:59;;;;;;;15.25;8.18;;;8.90;99.90;;;;;;8432971;28;20040;-71
2024/02/21 08:19:04;;;;;;;17.75;7.82;;;9.00;99.90;;;;;;8422151;28;20142;-71
2024/02/21 08:23:08;;;;;;;16.27;8.30;;;9.00;99.90;;;;;;8426826;28;20142;-71
2024/02/21 08:27:10;;;;;;;20.25;8.38;;;9.00;99.90;;;;;;8429133;28;20052;-71
2024/02/21 08:31:19;;;;;;;19.08;9.43;;;9.10;99.90;;;;;;8428255;28;20052;-71
2024/02/21 08:35:24;;;;;;;16.65;8.93;;;9.10;99.90;;;;;;8426800;28;20134;-71
2024/02/21 08:39:28;;;;;;;20.70;9.57;;;9.10;99.90;;;;;;8428160;28;20052;-71
2024/02/21 08:43:30;;;;;;;17.75;8.50;;;9.20;99.90;;;;;;8427346;28;20109;-71
2024/02/21 08:47:32;;;;;;;16.20;8.35;;;9.20;99.90;;;;;;8435963;28;20392;-71
2024/02/21 08:51:35;;;;;;;15.15;7.90;;;9.20;99.90;;;;;;8456800;27;20384;-71
2024/02/21 08:55:37;;;;;;;17.33;7.72;;;9.20;99.90;;;;;;8423698;28;20040;-71
2024/02/21 08:59:39;;;;;;;15.48;7.50;;;9.30;99.90;;;;;;8426963;28;20048;-71
2024/02/21 09:03:41;;;;;;;18.58;8.57;;;9.30;99.90;;;;;;8421434;28;20048;-71
2024/02/21 09:07:44;;;;;;;14.57;7.78;;;9.30;99.90;;;;;;8428762;28;20410;-71
2024/02/21 09:11:46;;;;;;;13.40;7.47;;;9.30;99.90;;;;;;8422501;28;20078;-71
2024/02/21 09:15:48;;;;;;;12.15;7.13;;;9.40;99.90;;;;;;8436028;28;25134;-71
2024/02/21 09:19:50;;;;;;;13.65;7.63;;;9.40;99.90;;;;;;8423624;28;20619;-71
2024/02/21 09:23:52;;;;;;;15.15;6.85;;;9.40;99.90;;;;;;8427385;27;20044;-71
2024/02/21 09:28:01;;;;;;;17.67;7.32;;;9.40;99.90;;;;;;8424055;28;20075;-71
2024/02/21 09:32:03;;;;;;;14.45;7.97;;;9.40;99.90;;;;;;8423512;28;20419;-71
2024/02/21 09:36:06;;;;;;;16.55;7.43;;;9.50;99.90;;;;;;8425365;28;20067;-70
2024/02/21 09:40:08;;;;;;;12.60;6.50;;;9.50;99.90;;;;;;8427544;28;20439;-71
2024/02/21 09:44:13;;;;;;;13.35;6.38;;;9.50;99.90;;;;;;8421872;28;20100;-71
2024/02/21 09:48:34;;;;;;;16.38;6.82;;;9.60;99.90;;;;;;8425519;28;20488;-71
2024/02/21 09:52:38;;;;;;;10.23;6.22;;;9.60;99.90;;;;;;8426469;28;20348;-71
2024/02/21 09:56:40;;;;;;;13.75;6.35;;;9.60;99.90;;;;;;8423804;28;20407;-71
2024/02/21 10:00:41;;;;;;;11.40;5.72;;;9.70;99.90;;;;;;8432743;28;20047;-71
2024/02/21 10:04:43;;;;;;;13.18;6.53;;;9.70;99.90;;;;;;8427144;28;20048;-71
2024/02/21 10:09:22;;;;;;;12.65;6.60;;;9.80;99.90;;;;;;8429621;28;20052;-71
2024/02/21 10:13:29;;;;;;;11.00;6.38;;;9.80;99.90;;;;;;8424376;28;20132;-71
2024/02/21 10:17:32;;;;;;;10.98;5.57;;;9.90;99.90;;;;;;8422997;27;20052;-71
2024/02/21 10:21:34;;;;;;;15.73;6.25;;;9.90;99.90;;;;;;8423656;28;20051;-71
2024/02/21 10:25:43;;;;;;;11.48;6.18;;;10.00;99.90;;;;;;8419895;28;20046;-71
2024/02/21 10:29:50;;;;;;;11.55;5.63;;;10.10;99.90;;;;;;8426007;28;20716;-71
2024/02/21 10:33:56;;;;;;;10.13;6.05;;;10.10;99.90;;;;;;8420602;28;20047;-71
2024/02/21 10:37:59;;;;;;;10.02;5.60;;;10.20;99.90;;;;;;8426282;28;20139;-71
2024/02/21 10:42:05;;;;;;;9.65;5.30;;;10.10;99.90;;;;;;8423568;28;20059;-71
2024/02/21 10:46:12;;;;;;;9.13;4.97;;;10.10;99.90;;;;;;8426804;28;20044;-71
2024/02/21 10:50:19;;;;;;;8.38;5.00;;;10.10;99.90;;;;;;8434994;28;20433;-71
2024/02/21 10:54:46;;;;;;;9.60;5.18;;;10.10;99.90;;;;;;8422015;28;20040;-71
2024/02/21 10:58:48;;;;;;;11.17;5.57;;;10.20;99.90;;;;;;8418096;28;20097;-71
2024/02/21 11:02:51;;;;;;;11.60;5.00;;;10.20;99.90;;;;;;8433835;28;21123;-71
2024/02/21 11:06:53;;;;;;;9.40;5.75;;;10.30;99.90;;;;;;8420110;28;20105;-71
2024/02/21 11:11:00;;;;;;;10.80;5.55;;;10.30;99.90;;;;;;8425623;28;20402;-71
2024/02/21 11:15:06;;;;;;;10.57;5.55;;;10.10;99.90;;;;;;8418588;28;20040;-71
2024/02/21 11:19:22;;;;;;;9.93;5.45;;;10.00;99.90;;;;;;8430825;28;20389;-71
2024/02/21 11:23:26;;;;;;;10.77;6.60;;;9.90;99.90;;;;;;8433970;28;20400;-71
2024/02/21 11:27:33;;;;;;;10.82;5.65;;;9.90;99.90;;;;;;8424556;28;20047;-71
2024/02/21 11:31:43;;;;;;;9.95;6.05;;;9.80;99.90;;;;;;8421696;28;20040;-71
2024/02/21 11:35:46;;;;;;;10.85;6.78;;;9.80;99.90;;;;;;8420562;28;20044;-71
2024/02/21 11:40:12;;;;;;;12.63;6.45;;;9.70;99.90;;;;;;8419867;28;20498;-71
2024/02/21 11:44:14;;;;;;;13.60;6.63;;;9.60;99.90;;;;;;8420440;28;20622;-71
2024/02/21 11:48:16;;;;;;;11.75;7.00;;;9.60;99.90;;;;;;8417678;28;20816;-71
2024/02/21 11:52:20;;;;;;;12.90;6.97;;;9.70;99.90;;;;;;8416454;28;20048;-71
2024/02/21 11:56:22;;;;;;;11.73;6.95;;;9.70;99.90;;;;;;8418933;28;20051;-71
2024/02/21 12:00:25;;;;;;;10.18;6.15;;;9.90;99.90;;;;;;8456154;27;20043;-71
2024/02/21 12:04:28;;;;;;;12.60;6.03;;;10.00;99.90;;;;;;8426979;28;20078;-71
2024/02/21 12:08:43;;;;;;;11.20;6.22;;;10.20;99.90;;;;;;8425358;28;20074;-71
2024/02/21 12:12:45;;;;;;;9.48;5.78;;;10.30;99.90;;;;;;8440740;28;20487;-71
2024/02/21 12:16:47;;;;;;;12.30;6.20;;;10.40;99.90;;;;;;8423227;28;20055;-71
2024/02/21 12:20:49;;;;;;;15.32;6.32;;;10.50;99.90;;;;;;8427705;28;20040;-71
2024/02/21 12:24:51;;;;;;;10.45;6.15;;;10.50;99.90;;;;;;8423893;28;20517;-71
2024/02/21 12:28:55;;;;;;;12.73;6.65;;;10.40;99.90;;;;;;8420346;28;20048;-71
2024/02/21 12:32:59;;;;;;;9.93;5.93;;;10.40;99.90;;;;;;8424816;28;20048;-71
2024/02/21 12:37:03;;;;;;;10.27;6.32;;;10.40;99.90;;;;;;8427046;28;20407;-71
2024/02/21 12:41:05;;;;;;;10.13;5.45;;;10.40;99.90;;;;;;8421129;28;20404;-71
2024/02/21 12:45:07;;;;;;;10.10;5.35;;;10.50;99.90;;;;;;8427272;28;20050;-71
2024/02/21 12:49:10;;;;;;;8.55;5.50;;;10.50;99.90;;;;;;8421344;28;20044;-71
2024/02/21 12:53:12;;;;;;;9.38;5.35;;;10.60;99.90;;;;;;8420118;28;20054;-71
2024/02/21 12:57:26;;;;;;;10.40;5.38;;;10.60;99.90;;;;;;8426210;28;20092;-71
2024/02/21 13:01:29;;;;;;;11.85;6.25;;;10.70;99.90;;;;;;8426761;28;20060;-71
2024/02/21 13:05:32;;;;;;;8.70;5.00;;;10.70;99.90;;;;;;8421705;28;20047;-71
2024/02/21 13:09:34;;;;;;;8.13;4.68;;;10.70;99.90;;;;;;8420470;28;20107;-71
2024/02/21 13:13:36;;;;;;;9.65;5.03;;;10.70;99.90;;;;;;8421941;28;20398;-71
2024/02/21 13:17:38;;;;;;;8.38;5.47;;;10.80;99.90;;;;;;8427724;28;20057;-71
2024/02/21 13:21:39;;;;;;;11.48;5.78;;;10.80;99.90;;;;;;8420083;28;20047;-71
2024/02/21 13:26:37;;;;;;;8.93;5.45;;;10.70;99.90;;;;;;8422479;28;20083;-71
2024/02/21 13:30:39;;;;;;;10.00;4.63;;;10.70;99.90;;;;;;8425068;28;20039;-71
2024/02/21 13:34:42;;;;;;;11.43;5.60;;;10.70;99.90;;;;;;8433263;28;20039;-71
2024/02/21 13:38:44;;;;;;;9.43;4.95;;;10.70;99.90;;;;;;8435503;28;20064;-71
2024/02/21 13:42:51;;;;;;;10.50;5.60;;;10.60;99.90;;;;;;8407447;28;20045;-71
2024/02/21 13:46:53;;;;;;;10.05;5.13;;;10.60;99.90;;;;;;8421181;28;20130;-71
2024/02/21 13:50:55;;;;;;;9.98;6.18;;;10.70;99.90;;;;;;8422207;28;20083;-71
2024/02/21 13:54:57;;;;;;;10.00;5.10;;;10.70;99.90;;;;;;8419985;28;20044;-71
2024/02/21 13:59:26;;;;;;;11.30;5.07;;;10.70;99.90;;;;;;8422979;28;20039;-71
2024/02/21 14:03:28;;;;;;;9.93;5.00;;;10.70;99.90;;;;;;8421855;28;20061;-71
2024/02/21 14:07:30;;;;;;;9.73;4.60;;;10.60;99.90;;;;;;8431512;28;20498;-71
2024/02/21 14:11:32;;;;;;;8.90;4.35;;;10.60;99.90;;;;;;8421921;28;20044;-71
2024/02/21 14:15:34;;;;;;;9.40;4.55;;;10.60;99.90;;;;;;8430593;28;20758;-71
2024/02/21 14:19:36;;;;;;;9.65;4.28;;;10.60;99.90;;;;;;8433007;28;20074;-71
2024/02/21 14:23:38;;;;;;;10.63;5.00;;;10.70;99.90;;;;;;8418791;28;20107;-71
2024/02/21 14:27:40;;;;;;;11.07;4.35;;;10.60;99.90;;;;;;8422988;28;20105;-71
2024/02/21 14:31:42;;;;;;;10.02;4.50;;;10.60;99.90;;;;;;8419408;28;20040;-71
2024/02/21 14:36:40;;;;;;;8.88;4.25;;;10.60;99.90;;;;;;8420077;28;20132;-71
2024/02/21 14:40:42;;;;;;;7.38;4.15;;;10.60;99.90;;;;;;8419399;28;20048;-71
2024/02/21 14:44:44;;;;;;;7.22;4.38;;;10.50;99.90;;;;;;8421925;28;20069;-71
2024/02/21 14:48:46;;;;;;;7.85;3.95;;;10.50;99.90;;;;;;8419699;28;20094;-71
2024/02/21 14:52:48;;;;;;;6.82;3.90;;;10.50;99.90;;;;;;8417539;28;20040;-71
2024/02/21 14:56:50;;;;;;;9.48;4.43;;;10.40;99.90;;;;;;8420367;28;20308;-71
2024/02/21 15:00:52;;;;;;;8.65;4.38;;;10.40;99.90;;;;;;8419980;28;20063;-71
2024/02/21 15:04:54;;;;;;;7.65;4.13;;;10.30;99.90;;;;;;8423699;28;20497;-71
2024/02/21 15:08:56;;;;;;;8.35;4.30;;;10.10;99.90;;;;;;8429538;28;20048;-71
2024/02/21 15:12:58;;;;;;;7.40;4.35;;;10.00;99.90;;;;;;8417148;28;20067;-71
2024/02/21 15:16:59;;;;;;;9.60;4.30;;;9.90;99.90;;;;;;8420271;28;20044;-71
2024/02/21 15:21:02;;;;;;;9.80;4.50;;;9.80;99.90;;;;;;8420756;28;20050;-71
2024/02/21 15:25:05;;;;;;;10.15;5.22;;;9.70;99.90;;;;;;8425839;28;20048;-71
2024/02/21 15:29:54;;;;;;;7.30;4.53;;;9.60;99.90;;;;;;8421015;28;20462;-71
2024/02/21 15:33:56;;;;;;;7.93;4.47;;;9.60;99.90;;;;;;8420369;28;20097;-71
2024/02/21 15:37:58;;;;;;;11.85;4.60;;;9.40;99.90;;;;;;8427834;28;20051;-71
2024/02/21 15:42:00;;;;;;;9.30;4.30;;;9.40;99.90;;;;;;8424937;28;20082;-71
2024/02/21 15:46:02;;;;;;;6.88;3.78;;;9.30;99.90;;;;;;8427472;27;20521;-71
2024/02/21 15:50:04;;;;;;;10.63;4.65;;;9.30;99.90;;;;;;8428897;28;20044;-71
2024/02/21 15:54:08;;;;;;;8.07;4.22;;;9.30;99.90;;;;;;8435124;28;20051;-71
2024/02/21 15:58:10;;;;;;;9.45;4.53;;;9.30;99.90;;;;;;8433312;28;20036;-71
2024/02/21 16:02:12;;;;;;;8.98;4.10;;;9.30;99.90;;;;;;8430590;27;20564;-71
2024/02/21 16:06:14;;;;;;;6.72;3.90;;;9.30;99.90;;;;;;8430200;28;20100;-71
2024/02/21 16:10:16;;;;;;;8.52;4.65;;;9.30;99.90;;;;;;8429573;27;20142;-71
2024/02/21 16:14:18;;;;;;;10.48;5.25;;;9.30;99.90;;;;;;8435661;28;20044;-71
2024/02/21 16:18:20;;;;;;;8.27;4.38;;;9.20;99.90;;;;;;8431085;27;20397;-71
2024/02/21 16:22:22;;;;;;;9.38;4.85;;;9.20;99.90;;;;;;8425273;28;20499;-71
2024/02/21 16:26:24;;;;;;;11.23;5.15;;;9.20;99.90;;;;;;8433591;28;20096;-71
2024/02/21 16:30:26;;;;;;;10.93;4.50;;;9.10;99.90;;;;;;8443770;28;20071;-72
2024/02/21 16:34:28;;;;;;;9.07;4.60;;;9.10;99.90;;;;;;8435552;28;20063;-71
2024/02/21 16:38:32;;;;;;;8.88;4.80;;;9.00;99.90;;;;;;8429552;28;20126;-72
2024/02/21 16:42:34;;;;;;;11.60;4.63;;;9.00;99.90;;;;;;8429752;28;20433;-72
2024/02/21 16:46:36;;;;;;;12.40;4.75;;;9.00;99.90;;;;;;8426829;28;20055;-71
2024/02/21 16:50:39;;;;;;;8.32;4.15;;;9.00;99.90;;;;;;8426355;28;20055;-72
2024/02/21 16:54:54;;;;;;;8.93;5.03;;;8.90;99.90;;;;;;8428815;27;20055;-72
2024/02/21 16:58:55;;;;;;;8.65;4.50;;;8.90;99.90;;;;;;8425245;27;20080;-71
2024/02/21 17:02:57;;;;;;;9.60;4.72;;;8.90;99.90;;;;;;8429991;27;20087;-71
2024/02/21 17:07:01;;;;;;;10.43;4.43;;;8.90;99.90;;;;;;8429850;28;20047;-72
2024/02/21 17:11:03;;;;;;;7.55;4.55;;;8.80;99.90;;;;;;8428132;28;20052;-72
2024/02/21 17:15:05;;;;;;;7.95;4.47;;;8.80;99.90;;;;;;8420594;27;20071;-71
2024/02/21 17:19:07;;;;;;;8.07;4.50;;;8.80;99.90;;;;;;8427487;27;20058;-71
2024/02/21 17:23:12;;;;;;;9.45;4.90;;;8.80;99.90;;;;;;8430874;28;20051;-72
2024/02/21 17:27:13;;;;;;;10.68;4.68;;;8.80;99.90;;;;;;8427044;27;20060;-72
2024/02/21 17:31:46;;;;;;;7.95;4.05;;;8.80;99.90;;;;;;8428045;28;20129;-72
2024/02/21 17:35:49;;;;;;;8.15;4.82;;;8.70;99.90;;;;;;8430923;28;20399;-72
2024/02/21 17:39:52;;;;;;;9.68;5.05;;;8.70;99.90;;;;;;8428297;27;20040;-72
2024/02/21 17:43:54;;;;;;;9.00;5.00;;;8.70;99.90;;;;;;8424680;28;20444;-72
2024/02/21 17:47:56;;;;;;;9.70;4.50;;;8.70;99.90;;;;;;8426100;28;20131;-72
2024/02/21 17:57:21;;;;;;;8.90;5.43;;;8.70;99.90;;;;;;8436013;28;20042;-72
2024/02/21 18:01:23;;;;;;;7.50;4.57;;;8.70;99.90;;;;;;8426733;28;20085;-72
2024/02/21 18:05:25;;;;;;;9.05;5.07;;;8.70;99.90;;;;;;8426018;28;20465;-72
2024/02/21 18:09:27;;;;;;;8.23;4.45;;;8.70;99.90;;;;;;8431117;28;20047;-73
2024/02/21 18:13:31;;;;;;;7.38;5.03;;;8.70;99.90;;;;;;8429365;28;20048;-73
2024/02/21 18:17:34;;;;;;;10.43;5.78;;;8.70;99.90;;;;;;8430236;28;20051;-73
2024/02/21 18:21:37;;;;;;;7.32;4.70;;;8.70;99.90;;;;;;8424448;28;20059;-72
2024/02/21 18:25:40;;;;;;;10.20;4.93;;;8.70;99.90;;;;;;8427875;28;20466;-72
2024/02/21 18:29:42;;;;;;;10.85;5.00;;;8.70;99.90;;;;;;8421571;28;20071;-72
2024/02/21 18:33:48;;;;;;;7.65;4.75;;;8.70;99.90;;;;;;8419964;28;20054;-72
2024/02/21 18:37:50;;;;;;;9.55;5.18;;;8.70;99.90;;;;;;8423303;27;20480;-73
2024/02/21 18:41:52;;;;;;;9.98;5.70;;;8.70;99.90;;;;;;8424241;28;20047;-73
2024/02/21 18:51:23;;;;;;;8.43;5.50;;;8.70;99.90;;;;;;8427162;28;20160;-73
2024/02/21 18:55:25;;;;;;;7.90;5.03;;;8.70;99.90;;;;;;8425129;28;20047;-72
2024/02/21 18:59:28;;;;;;;7.70;4.70;;;8.70;99.90;;;;;;8435091;28;20397;-72
2024/02/21 19:03:30;;;;;;;9.80;5.13;;;8.70;99.90;;;;;;8424183;28;20453;-72
2024/02/21 19:07:34;;;;;;;7.05;4.75;;;8.70;99.90;;;;;;8424460;28;20472;-72
2024/02/21 19:11:35;;;;;;;8.02;5.03;;;8.80;99.90;;;;;;8441559;27;20073;-72
2024/02/21 19:15:41;;;;;;;8.02;4.68;;;8.80;99.90;;;;;;8444116;28;20447;-72
2024/02/21 19:19:44;;;;;;;8.45;5.22;;;8.80;99.90;;;;;;8434324;28;20384;-72
2024/02/21 19:23:46;;;;;;;8.73;5.45;;;8.80;99.90;;;;;;8442928;27;20054;-73
2024/02/21 19:27:48;;;;;;;10.95;5.97;;;8.80;99.90;;;;;;8443065;28;20063;-73
2024/02/21 19:31:49;;;;;;;8.32;5.03;;;8.80;99.90;;;;;;8434710;28;20044;-73
2024/02/21 19:35:51;;;;;;;9.15;4.78;;;8.80;99.90;;;;;;8438486;28;20086;-73
2024/02/21 19:39:53;;;;;;;10.07;5.72;;;8.80;99.90;;;;;;8430471;27;20498;-73
2024/02/21 19:43:55;;;;;;;8.32;4.97;;;8.80;99.90;;;;;;8440003;27;20058;-73
2024/02/21 19:47:58;;;;;;;9.70;5.07;;;8.80;99.90;;;;;;8433513;27;20075;-73
2024/02/21 19:52:00;;;;;;;7.90;5.07;;;8.80;99.90;;;;;;8431093;28;20044;-73
2024/02/21 19:56:02;;;;;;;9.45;5.45;;;8.90;99.90;;;;;;8437685;28;20100;-72
2024/02/21 20:00:10;;;;;;;8.30;4.90;;;8.80;99.90;;;;;;8434893;28;20051;-72
2024/02/21 20:04:12;;;;;;;8.15;5.38;;;8.90;99.90;;;;;;8431127;28;20101;-72
2024/02/21 20:08:17;;;;;;;8.02;4.70;;;8.90;99.90;;;;;;8434663;28;20140;-72
2024/02/21 20:12:20;;;;;;;7.97;5.45;;;8.90;99.90;;;;;;8436251;28;20414;-72
2024/02/21 20:16:22;;;;;;;8.68;5.32;;;8.90;99.90;;;;;;8438465;28;20044;-73
2024/02/21 20:20:24;;;;;;;8.48;5.25;;;8.90;99.90;;;;;;8430173;28;20416;-72
2024/02/21 20:24:26;;;;;;;7.60;4.80;;;8.90;99.90;;;;;;8429702;28;20422;-73
2024/02/21 20:28:40;;;;;;;8.15;5.38;;;8.90;99.90;;;;;;8434803;27;20044;-73
2024/02/21 20:38:05;;;;;;;9.55;4.80;;;9.00;99.90;;;;;;8433461;27;20030;-73
2024/02/21 20:42:08;;;;;;;7.93;5.40;;;9.00;99.90;;;;;;8433010;28;20066;-73
2024/02/21 20:51:15;;;;;;;7.63;4.97;;;9.00;99.90;;;;;;8428541;28;20044;-73
2024/02/21 20:55:23;;;;;;;6.95;4.78;;;9.00;99.90;;;;;;8429916;28;20497;-73
2024/02/21 20:59:25;;;;;;;10.70;5.38;;;9.00;99.90;;;;;;8440221;28;20169;-73
2024/02/21 21:03:27;;;;;;;7.47;4.85;;;9.00;99.90;;;;;;8435743;27;20068;-73
2024/02/21 21:07:33;;;;;;;6.80;4.88;;;9.00;99.90;;;;;;8435396;28;20044;-73
2024/02/21 21:11:36;;;;;;;8.52;5.40;;;9.00;99.90;;;;;;8428297;28;20044;-74
2024/02/21 21:15:49;;;;;;;6.97;5.00;;;9.00;99.90;;;;;;8439448;28;20048;-73
2024/02/21 21:19:52;;;;;;;6.55;4.43;;;9.10;99.90;;;;;;8432703;28;20047;-73
2024/02/21 21:23:55;;;;;;;6.90;5.05;;;9.10;99.90;;;;;;8428331;27;20088;-73
2024/02/21 21:27:57;;;;;;;7.28;4.60;;;9.10;99.90;;;;;;8429946;28;20043;-74
2024/02/21 21:31:58;;;;;;;6.97;4.80;;;9.10;99.90;;;;;;8425373;28;20348;-74
2024/02/21 21:36:01;;;;;;;8.25;5.22;;;9.10;99.90;;;;;;8433895;28;20051;-73
2024/02/21 21:40:07;;;;;;;7.47;4.93;;;9.10;99.90;;;;;;8437689;28;20138;-73
2024/02/21 21:44:09;;;;;;;8.20;4.15;;;9.10;99.90;;;;;;8431025;28;20062;-73
2024/02/21 21:48:11;;;;;;;6.88;5.03;;;9.20;99.90;;;;;;8434654;28;20129;-73
2024/02/21 21:52:14;;;;;;;10.10;4.80;;;9.20;99.90;;;;;;8427681;28;20441;-73
2024/02/21 21:56:18;;;;;;;7.85;4.75;;;9.20;99.90;;;;;;8426631;28;20487;-73
2024/02/21 22:00:20;;;;;;;7.63;5.05;;;9.20;99.90;;;;;;8432200;27;20162;-74
2024/02/21 22:04:22;;;;;;;8.57;5.45;;;9.20;99.90;;;;;;8449609;28;20051;-73
2024/02/21 22:08:25;;;;;;;7.43;5.18;;;9.30;99.90;;;;;;8455994;27;20501;-74
2024/02/21 22:12:27;;;;;;;6.78;4.88;;;9.30;99.90;;;;;;8454742;27;20043;-74